Time;durP1;ratioP1;P1;durP2;ratioP2;P2;SDS_P1;SDS_P2;PMS_P1;PMS_P2;Temp;Humidity;BMP_temperature;BMP_pressure;BME280_temperature;BME280_humidity;BME280_pressure;Samples;Min_cycle;Max_cycle;Signal;HPM_P1;HPM_P2
2023/06/21 00:01:55;;;;;;;32.13;17.30;;;;;;;18.38;100.00;101317.09;6098263;19;20007;-71
2023/06/21 00:04:02;;;;;;;36.97;19.88;;;;;;;18.37;100.00;101303.88;6099141;19;20498;-71
2023/06/21 00:06:07;;;;;;;35.92;19.63;;;;;;;18.33;100.00;101313.88;6096885;19;20026;-71
2023/06/21 00:08:15;;;;;;;34.97;18.55;;;;;;;18.41;100.00;101313.38;6097657;19;20006;-71
2023/06/21 00:10:23;;;;;;;36.92;18.15;;;;;;;18.38;100.00;101311.75;6097073;19;20016;-72
2023/06/21 00:12:29;;;;;;;35.03;19.63;;;;;;;18.39;100.00;101309.94;6091781;19;20470;-73
2023/06/21 00:14:34;;;;;;;38.80;19.70;;;;;;;18.31;100.00;101318.44;6097921;19;20015;-70
2023/06/21 00:16:39;;;;;;;37.40;19.00;;;;;;;18.32;100.00;101305.97;6097609;19;20361;-71
2023/06/21 00:18:45;;;;;;;36.78;19.13;;;;;;;18.23;100.00;101310.09;6091151;19;20003;-70
2023/06/21 00:20:50;;;;;;;35.60;19.10;;;;;;;18.23;100.00;101314.56;6096007;19;20064;-71
2023/06/21 00:22:56;;;;;;;38.20;18.98;;;;;;;18.22;100.00;101308.41;6096746;19;20014;-70
2023/06/21 00:25:07;;;;;;;34.63;18.23;;;;;;;18.19;100.00;101317.44;6095425;19;20018;-70
2023/06/21 00:27:12;;;;;;;39.58;18.75;;;;;;;18.15;100.00;101323.91;6093595;19;20017;-69
2023/06/21 00:29:21;;;;;;;37.30;18.05;;;;;;;18.18;100.00;101328.16;6095615;19;20046;-69
2023/06/21 00:31:26;;;;;;;37.58;18.40;;;;;;;18.15;100.00;101333.69;6088469;19;20017;-71
2023/06/21 00:33:31;;;;;;;32.65;17.35;;;;;;;18.18;100.00;101344.13;6095990;19;20586;-69
2023/06/21 00:35:36;;;;;;;37.83;19.73;;;;;;;18.19;100.00;101336.06;6102299;19;20011;-69
2023/06/21 00:37:39;;;;;;;36.05;19.17;;;;;;;18.18;100.00;101333.50;6102630;19;20014;-69
2023/06/21 00:39:44;;;;;;;35.63;18.13;;;;;;;18.16;100.00;101335.38;6098578;19;20101;-69
2023/06/21 00:41:54;;;;;;;38.88;18.95;;;;;;;18.16;100.00;101338.03;6104423;19;20076;-69
2023/06/21 00:43:59;;;;;;;42.15;19.08;;;;;;;18.16;100.00;101348.69;6103524;19;20038;-69
2023/06/21 00:46:04;;;;;;;39.95;19.25;;;;;;;18.17;100.00;101355.72;6100278;19;20015;-68
2023/06/21 00:48:09;;;;;;;46.85;21.63;;;;;;;18.12;100.00;101357.84;6095185;19;20601;-68
2023/06/21 00:50:15;;;;;;;42.95;20.48;;;;;;;18.14;100.00;101369.19;6101812;19;20122;-69
2023/06/21 00:52:20;;;;;;;42.63;19.40;;;;;;;18.14;100.00;101367.41;6098984;19;20006;-69
2023/06/21 00:54:29;;;;;;;47.55;20.33;;;;;;;18.13;100.00;101376.34;6096307;19;20323;-70
2023/06/21 00:56:36;;;;;;;42.25;19.30;;;;;;;18.13;100.00;101376.34;6103977;19;20011;-70
2023/06/21 00:58:43;;;;;;;37.22;19.63;;;;;;;18.16;100.00;101378.78;6102791;19;20006;-70
2023/06/21 01:00:49;;;;;;;36.00;17.88;;;;;;;18.15;100.00;101386.88;6094919;19;20023;-71
2023/06/21 01:02:58;;;;;;;36.53;18.75;;;;;;;18.11;100.00;101385.38;6099582;19;20034;-70
2023/06/21 01:05:05;;;;;;;39.08;19.50;;;;;;;18.07;100.00;101383.88;6100426;19;20010;-69
2023/06/21 01:07:18;;;;;;;37.85;17.98;;;;;;;18.07;100.00;101389.19;6103197;19;20530;-70
2023/06/21 01:09:34;;;;;;;42.80;20.40;;;;;;;18.05;100.00;101394.59;6093891;19;20675;-71
2023/06/21 01:12:02;;;;;;;34.72;18.08;;;;;;;18.01;100.00;101389.56;6096468;19;20019;-71
2023/06/21 01:14:23;;;;;;;38.92;18.70;;;;;;;17.96;100.00;101385.41;6096834;19;20447;-72
2023/06/21 01:16:38;;;;;;;39.25;18.20;;;;;;;17.98;100.00;101394.13;6099750;19;20373;-72
2023/06/21 01:18:46;;;;;;;36.95;17.80;;;;;;;18.01;100.00;101392.22;6098496;19;20010;-70
2023/06/21 01:20:56;;;;;;;42.20;21.25;;;;;;;18.01;100.00;101395.75;6078109;19;20046;-70
2023/06/21 01:23:17;;;;;;;38.05;19.08;;;;;;;17.97;100.00;101395.06;6098701;19;20003;-72
2023/06/21 01:25:33;;;;;;;42.97;20.15;;;;;;;17.92;100.00;101399.81;6078405;19;20077;-68
2023/06/21 01:27:48;;;;;;;45.28;19.77;;;;;;;17.93;100.00;101398.88;6098924;19;20470;-72
2023/06/21 01:30:03;;;;;;;45.63;22.17;;;;;;;17.94;100.00;101383.78;6099241;19;20014;-71
2023/06/21 01:32:13;;;;;;;46.20;21.58;;;;;;;17.90;100.00;101383.09;6098333;19;20006;-71
2023/06/21 01:34:20;;;;;;;44.90;22.92;;;;;;;17.91;100.00;101382.16;6097797;19;21296;-71
2023/06/21 01:36:25;;;;;;;47.97;22.33;;;;;;;17.94;100.00;101389.94;6096733;19;20046;-70
2023/06/21 01:38:32;;;;;;;43.47;21.00;;;;;;;17.92;100.00;101386.53;6097770;19;20027;-71
2023/06/21 01:40:39;;;;;;;45.05;22.10;;;;;;;17.91;100.00;101383.97;6097321;19;20002;-70
2023/06/21 01:42:44;;;;;;;42.90;22.10;;;;;;;17.89;100.00;101388.53;6095369;19;20031;-71
2023/06/21 01:44:50;;;;;;;45.63;21.75;;;;;;;17.87;100.00;101388.63;6098743;19;20428;-70
2023/06/21 01:46:59;;;;;;;45.00;21.55;;;;;;;17.81;100.00;101386.34;6099178;19;20006;-68
2023/06/21 01:49:06;;;;;;;48.03;21.67;;;;;;;17.82;100.00;101396.03;6075800;19;20354;-70
2023/06/21 01:51:12;;;;;;;47.03;21.67;;;;;;;17.80;100.00;101405.03;6100471;19;20443;-69
2023/06/21 01:53:20;;;;;;;45.70;21.45;;;;;;;17.83;100.00;101408.38;6091231;19;20013;-69
2023/06/21 01:55:27;;;;;;;47.28;23.33;;;;;;;17.82;100.00;101408.47;6066265;19;20018;-70
2023/06/21 01:57:35;;;;;;;45.15;22.33;;;;;;;17.80;100.00;101397.06;6095050;19;20030;-68
2023/06/21 01:59:41;;;;;;;48.00;21.98;;;;;;;17.82;100.00;101398.69;6096217;19;20405;-70
2023/06/21 02:01:50;;;;;;;42.25;20.52;;;;;;;17.76;100.00;101401.69;6077296;19;20396;-70
2023/06/21 02:04:03;;;;;;;46.03;22.35;;;;;;;17.75;100.00;101405.31;6096379;19;20539;-69
2023/06/21 02:06:08;;;;;;;;;;;;;;;17.72;100.00;101413.44;6106781;19;20023;-68
2023/06/21 02:08:18;;;;;;;45.63;22.05;;;;;;;17.71;100.00;101414.41;6078342;19;19918;-68
2023/06/21 02:10:25;;;;;;;44.58;22.50;;;;;;;17.68;100.00;101422.56;6102906;19;20014;-68
2023/06/21 02:12:34;;;;;;;46.88;23.30;;;;;;;17.68;100.00;101419.91;6101366;19;20384;-69
2023/06/21 02:14:39;;;;;;;51.63;24.77;;;;;;;17.68;100.00;101423.44;6099509;19;20035;-68
2023/06/21 02:16:44;;;;;;;52.10;23.40;;;;;;;17.66;100.00;101422.66;6076899;19;20403;-70
2023/06/21 02:18:50;;;;;;;50.08;23.73;;;;;;;17.70;100.00;101424.19;6076689;19;20007;-71
2023/06/21 02:20:58;;;;;;;45.33;23.27;;;;;;;17.72;100.00;101418.75;6075782;19;20028;-71
2023/06/21 02:23:03;;;;;;;52.45;24.67;;;;;;;17.67;100.00;101418.22;6098641;19;20200;-70
2023/06/21 02:25:09;;;;;;;46.50;22.00;;;;;;;17.65;100.00;101425.44;6098357;19;20030;-72
2023/06/21 02:27:14;;;;;;;59.75;24.25;;;;;;;17.62;100.00;101417.66;6094443;19;20100;-71
2023/06/21 02:29:19;;;;;;;49.10;22.83;;;;;;;17.61;100.00;101413.25;6094959;19;20007;-71
2023/06/21 02:31:24;;;;;;;47.55;23.13;;;;;;;17.60;100.00;101422.19;6090340;19;20025;-70
2023/06/21 02:33:33;;;;;;;51.17;24.13;;;;;;;17.61;100.00;101422.09;6097961;19;20006;-70
2023/06/21 02:35:38;;;;;;;47.20;22.90;;;;;;;17.64;100.00;101434.31;6093921;19;21102;-72
2023/06/21 02:37:47;;;;;;;53.45;25.10;;;;;;;17.65;100.00;101444.88;6094268;19;20021;-71
2023/06/21 02:39:54;;;;;;;53.38;24.05;;;;;;;17.59;100.00;101437.28;6093578;19;20436;-71
2023/06/21 02:42:00;;;;;;;51.67;24.23;;;;;;;17.59;100.00;101439.94;6095974;19;20641;-71
2023/06/21 02:44:05;;;;;;;48.63;22.50;;;;;;;17.59;100.00;101447.03;6096880;19;20006;-71
2023/06/21 02:46:10;;;;;;;55.83;23.73;;;;;;;17.58;100.00;101445.34;6097144;19;20006;-71
2023/06/21 02:48:15;;;;;;;54.35;22.17;;;;;;;17.53;100.00;101432.31;6092625;19;20425;-70
2023/06/21 02:50:20;;;;;;;45.10;21.92;;;;;;;17.52;100.00;101435.94;6096769;19;20017;-71
2023/06/21 02:52:25;;;;;;;42.22;21.50;;;;;;;17.50;100.00;101433.38;6096378;19;20517;-72
2023/06/21 02:54:36;;;;;;;45.17;20.23;;;;;;;17.46;100.00;101445.13;6100226;19;20010;-69
2023/06/21 02:56:42;;;;;;;45.60;20.20;;;;;;;17.46;100.00;101452.25;6100934;19;20506;-72
2023/06/21 02:58:47;;;;;;;47.00;20.52;;;;;;;17.47;100.00;101454.81;6102139;19;20013;-71
2023/06/21 03:00:57;;;;;;;37.80;19.15;;;;;;;17.47;100.00;101454.81;6100509;19;20006;-69
2023/06/21 03:03:06;;;;;;;37.33;17.48;;;;;;;17.45;100.00;101454.03;6097472;19;20376;-70
2023/06/21 03:05:12;;;;;;;40.50;18.88;;;;;;;17.44;100.00;101452.34;6098168;19;20002;-68
2023/06/21 03:07:17;;;;;;;36.95;17.42;;;;;;;17.40;100.00;101453.44;6097652;19;20035;-71
2023/06/21 03:09:25;;;;;;;39.08;17.35;;;;;;;17.41;100.00;101462.31;6100795;19;20358;-70
2023/06/21 03:11:32;;;;;;;35.65;15.85;;;;;;;17.44;100.00;101460.31;6095482;19;20035;-70
2023/06/21 03:13:38;;;;;;;31.45;15.27;;;;;;;17.42;100.00;101462.19;6099256;19;20468;-68
2023/06/21 03:15:43;;;;;;;29.00;13.57;;;;;;;17.43;100.00;101468.34;6091725;19;20462;-69
2023/06/21 03:17:48;;;;;;;26.98;12.25;;;;;;;17.35;100.00;101476.78;6096779;19;20056;-68
2023/06/21 03:19:53;;;;;;;24.67;11.02;;;;;;;17.36;100.00;101481.16;6096167;19;20014;-69
2023/06/21 03:21:58;;;;;;;24.67;12.13;;;;;;;17.36;100.00;101491.78;6074233;19;20094;-69
2023/06/21 03:24:04;;;;;;;22.02;9.90;;;;;;;17.37;100.00;101490.84;6088467;19;20039;-69
2023/06/21 03:26:09;;;;;;;23.38;10.57;;;;;;;17.39;100.00;101488.94;6095058;19;20015;-71
2023/06/21 03:28:17;;;;;;;19.90;9.27;;;;;;;17.36;100.00;101494.44;6088173;19;23660;-71
2023/06/21 03:30:23;;;;;;;19.73;8.93;;;;;;;17.40;100.00;101498.63;6075790;19;20006;-72
2023/06/21 03:32:28;;;;;;;16.70;9.13;;;;;;;17.41;99.91;101496.84;6093034;19;20067;-71
2023/06/21 03:34:33;;;;;;;16.90;8.27;;;;;;;17.39;99.38;101494.25;6093476;19;20112;-71
2023/06/21 03:36:39;;;;;;;17.23;7.97;;;;;;;17.41;99.42;101497.69;6094813;19;20013;-72
2023/06/21 03:38:44;;;;;;;19.05;7.85;;;;;;;17.41;99.14;101503.00;6093213;19;20022;-70
2023/06/21 03:40:49;;;;;;;16.45;6.85;;;;;;;17.44;99.13;101496.66;6096900;19;20104;-72
2023/06/21 03:42:55;;;;;;;17.63;7.07;;;;;;;17.41;98.56;101496.84;6089363;19;20084;-71
2023/06/21 03:45:03;;;;;;;14.15;6.53;;;;;;;17.40;98.56;101505.75;6069927;19;20414;-71
2023/06/21 03:47:10;;;;;;;13.75;6.57;;;;;;;17.42;98.04;101512.69;6091953;19;20012;-71
2023/06/21 03:49:15;;;;;;;13.10;6.13;;;;;;;17.42;98.82;101522.47;6092778;19;20023;-71
2023/06/21 03:51:22;;;;;;;14.90;6.82;;;;;;;17.43;99.04;101522.38;6089499;19;20003;-70
2023/06/21 03:53:29;;;;;;;15.05;7.03;;;;;;;17.43;98.44;101526.81;6092207;19;20036;-70
2023/06/21 03:55:35;;;;;;;13.85;5.75;;;;;;;17.40;98.06;101525.19;6076067;19;20010;-68
2023/06/21 03:57:41;;;;;;;13.77;6.85;;;;;;;17.38;97.83;101520.91;6098923;19;20043;-68
2023/06/21 03:59:48;;;;;;;15.23;5.78;;;;;;;17.38;98.20;101524.44;6079368;19;20002;-70
2023/06/21 04:01:56;;;;;;;16.13;6.28;;;;;;;17.40;98.46;101522.53;6094106;19;20003;-69
2023/06/21 04:04:03;;;;;;;12.85;5.70;;;;;;;17.37;98.53;101527.19;6090803;19;20010;-70
2023/06/21 04:06:09;;;;;;;11.82;5.43;;;;;;;17.39;98.41;101533.25;6093694;19;20010;-70
2023/06/21 04:08:14;;;;;;;16.42;6.43;;;;;;;17.39;98.49;101530.59;6094887;19;20027;-69
2023/06/21 04:10:21;;;;;;;11.40;5.65;;;;;;;17.40;98.87;101537.63;6099832;19;20006;-69
2023/06/21 04:12:28;;;;;;;13.60;6.18;;;;;;;17.38;98.46;101535.06;6102435;19;20296;-71
2023/06/21 04:14:33;;;;;;;12.80;6.07;;;;;;;17.39;98.24;101539.44;6100657;19;20046;-71
2023/06/21 04:16:38;;;;;;;12.93;5.90;;;;;;;17.43;98.88;101540.97;6083793;19;20170;-70
2023/06/21 04:18:45;;;;;;;12.80;5.50;;;;;;;17.44;98.10;101545.34;6097946;19;20010;-68
2023/06/21 04:20:50;;;;;;;13.77;6.15;;;;;;;17.46;98.54;101539.94;6097391;19;20256;-69
2023/06/21 04:22:55;;;;;;;12.30;5.65;;;;;;;17.45;97.69;101539.06;6088813;19;20023;-69
2023/06/21 04:25:02;;;;;;;14.15;6.05;;;;;;;17.47;97.13;101533.66;6102966;19;20236;-70
2023/06/21 04:27:12;;;;;;;12.93;5.88;;;;;;;17.48;96.94;101536.25;6100759;19;20332;-68
2023/06/21 04:29:17;;;;;;;17.15;5.68;;;;;;;17.52;98.03;101542.25;6102866;19;20003;-69
2023/06/21 04:31:24;;;;;;;14.45;5.68;;;;;;;17.58;97.88;101533.88;6093315;19;20380;-70
2023/06/21 04:33:30;;;;;;;12.73;5.38;;;;;;;17.60;96.24;101541.78;6097875;19;20047;-70
2023/06/21 04:35:38;;;;;;;13.05;5.28;;;;;;;17.65;96.86;101550.34;6101800;19;20014;-70
2023/06/21 04:37:45;;;;;;;13.38;5.70;;;;;;;17.65;96.37;101553.00;6105616;19;20343;-70
2023/06/21 04:39:50;;;;;;;11.23;5.15;;;;;;;17.63;95.30;101561.06;6086696;19;20435;-69
2023/06/21 04:42:09;;;;;;;10.07;4.35;;;;;;;17.66;95.97;101560.03;6102374;19;20516;-71
2023/06/21 04:44:17;;;;;;;11.25;4.28;;;;;;;17.63;95.05;101560.22;6083620;19;20567;-70
2023/06/21 04:46:27;;;;;;;15.05;4.45;;;;;;;17.68;95.68;101552.81;6103654;19;19998;-69
2023/06/21 04:48:33;;;;;;;10.10;4.20;;;;;;;17.66;94.73;101554.72;6098708;19;20034;-69
2023/06/21 04:50:45;;;;;;;9.60;3.67;;;;;;;17.62;93.61;101558.50;6099098;19;20361;-71
2023/06/21 04:52:57;;;;;;;7.90;3.72;;;;;;;17.60;93.31;101552.41;6091368;19;20106;-70
2023/06/21 04:55:03;;;;;;;9.77;4.00;;;;;;;17.52;92.88;101553.72;6100664;19;20027;-70
2023/06/21 04:57:12;;;;;;;9.82;3.85;;;;;;;17.57;93.39;101558.78;6097939;19;20011;-69
2023/06/21 04:59:17;;;;;;;10.00;4.18;;;;;;;17.53;92.67;101557.22;6101850;19;20023;-69
2023/06/21 05:01:25;;;;;;;8.02;3.75;;;;;;;17.58;92.90;101562.28;6098707;19;20003;-70
2023/06/21 05:03:32;;;;;;;9.57;3.28;;;;;;;17.53;92.96;101571.34;6080318;19;20116;-68
2023/06/21 05:05:40;;;;;;;7.05;3.20;;;;;;;17.55;93.22;101572.13;6104351;19;20010;-69
2023/06/21 05:07:48;;;;;;;10.20;3.47;;;;;;;17.55;93.78;101582.75;6101807;19;20009;-70
2023/06/21 05:09:55;;;;;;;7.93;3.60;;;;;;;17.57;93.23;101589.81;6099115;19;20513;-69
2023/06/21 05:12:01;;;;;;;8.05;3.70;;;;;;;17.58;93.50;101588.84;6103643;19;20706;-70
2023/06/21 05:14:06;;;;;;;11.70;3.83;;;;;;;17.66;93.27;101592.75;6102868;19;20043;-70
2023/06/21 05:16:11;;;;;;;9.00;3.67;;;;;;;18.05;92.34;101587.88;6096690;19;20360;-68
2023/06/21 05:18:16;;;;;;;8.98;3.28;;;;;;;18.08;91.16;101593.88;6096634;19;20030;-70
2023/06/21 05:20:22;;;;;;;9.85;3.95;;;;;;;18.15;90.97;101591.72;6097769;19;20747;-70
2023/06/21 05:22:29;;;;;;;8.30;3.50;;;;;;;18.47;89.90;101588.88;6101368;19;20367;-70
2023/06/21 05:24:37;;;;;;;10.65;3.83;;;;;;;18.77;88.69;101584.34;6096008;19;20006;-70
2023/06/21 05:26:44;;;;;;;9.85;3.25;;;;;;;19.01;88.48;101589.03;6099059;19;20439;-69
2023/06/21 05:28:49;;;;;;;14.35;4.25;;;;;;;19.17;86.10;101594.25;6100309;19;20025;-69
2023/06/21 05:30:54;;;;;;;7.63;3.20;;;;;;;19.15;85.45;101594.34;6095719;19;20003;-70
2023/06/21 05:32:59;;;;;;;8.85;3.17;;;;;;;19.29;84.99;101594.31;6097455;19;20102;-70
2023/06/21 05:35:04;;;;;;;10.13;3.90;;;;;;;19.37;85.86;101596.47;6098353;19;20263;-70
2023/06/21 05:37:09;;;;;;;7.82;3.20;;;;;;;19.25;84.28;101597.28;6093524;19;20006;-69
2023/06/21 05:39:18;;;;;;;9.85;3.25;;;;;;;19.36;84.64;101593.91;6099679;19;20027;-70
2023/06/21 05:41:23;;;;;;;13.48;3.70;;;;;;;19.72;83.69;101595.97;6090175;19;20710;-70
2023/06/21 05:43:28;;;;;;;8.80;3.00;;;;;;;19.93;81.67;101601.66;6096133;19;20002;-69
2023/06/21 05:45:33;;;;;;;8.82;3.40;;;;;;;20.17;81.51;101608.03;6095442;19;20013;-69
2023/06/21 05:47:38;;;;;;;7.60;3.00;;;;;;;20.01;80.22;101602.03;6097539;19;20455;-69
2023/06/21 05:49:44;;;;;;;8.18;3.10;;;;;;;20.13;79.30;101611.00;6098691;19;20021;-69
2023/06/21 05:51:50;;;;;;;12.43;3.50;;;;;;;20.35;79.14;101610.34;6099445;19;20036;-72
2023/06/21 05:53:56;;;;;;;7.65;2.85;;;;;;;20.63;78.95;101608.47;6074366;19;20463;-71
2023/06/21 05:56:04;;;;;;;10.43;3.33;;;;;;;20.77;77.26;101608.34;6101031;19;20014;-73
2023/06/21 05:58:09;;;;;;;12.52;3.00;;;;;;;20.63;76.98;101613.81;6094214;19;20038;-73
2023/06/21 06:00:17;;;;;;;6.45;2.58;;;;;;;20.73;76.71;101606.88;6097762;19;20003;-73
2023/06/21 06:02:22;;;;;;;8.55;2.53;;;;;;;20.70;75.45;101615.94;6101247;19;20006;-72
2023/06/21 06:04:28;;;;;;;6.93;2.65;;;;;;;20.64;75.98;101621.69;6096285;19;20017;-72
2023/06/21 06:06:38;;;;;;;6.28;2.70;;;;;;;21.01;75.61;101621.75;6100684;19;20042;-70
2023/06/21 06:08:45;;;;;;;6.32;2.50;;;;;;;20.62;75.03;101634.34;6081202;19;20360;-70
2023/06/21 06:10:50;;;;;;;7.50;2.65;;;;;;;20.98;74.67;101627.31;6098113;19;20064;-71
2023/06/21 06:13:00;;;;;;;9.07;3.00;;;;;;;21.08;74.04;101631.03;6078103;19;20038;-72
2023/06/21 06:15:05;;;;;;;12.27;2.70;;;;;;;20.92;73.87;101639.31;6096873;19;20027;-71
2023/06/21 06:17:11;;;;;;;5.80;2.58;;;;;;;21.29;72.58;101635.78;6102425;19;20003;-71
2023/06/21 06:19:17;;;;;;;6.97;2.30;;;;;;;21.50;72.69;101644.09;6104553;19;20002;-71
2023/06/21 06:21:25;;;;;;;7.68;2.50;;;;;;;21.68;72.60;101642.72;6104640;19;20471;-70
2023/06/21 06:23:29;;;;;;;7.10;2.95;;;;;;;;;;6100567;19;20010;-71
2023/06/21 06:25:34;;;;;;;7.03;2.40;;;;;;;21.44;72.20;101643.56;6104922;19;20141;-72
2023/06/21 06:27:39;;;;;;;6.53;2.42;;;;;;;21.43;70.99;101641.00;6099665;19;20012;-72
2023/06/21 06:29:47;;;;;;;8.15;2.90;;;;;;;21.82;70.20;101645.19;6104649;19;20007;-72
2023/06/21 06:31:52;;;;;;;10.10;2.45;;;;;;;21.58;69.76;101644.38;6101319;19;20114;-72
2023/06/21 06:33:59;;;;;;;8.98;2.88;;;;;;;21.60;70.24;101648.63;6105358;19;20015;-73
2023/06/21 06:36:04;;;;;;;6.60;2.50;;;;;;;21.83;70.72;101660.31;6103842;19;20078;-71
2023/06/21 06:38:09;;;;;;;4.57;2.20;;;;;;;22.43;69.84;101657.56;6102590;19;20019;-72
2023/06/21 06:40:15;;;;;;;5.85;2.20;;;;;;;22.19;68.35;101665.69;6097033;19;20508;-71
2023/06/21 06:42:20;;;;;;;4.18;2.17;;;;;;;22.50;67.76;101667.69;6095097;19;20815;-71
2023/06/21 06:44:25;;;;;;;6.90;2.45;;;;;;;22.68;67.55;101667.25;6093804;19;20020;-69
2023/06/21 06:46:33;;;;;;;4.53;2.20;;;;;;;22.88;66.50;101663.84;6096392;19;20014;-72
2023/06/21 06:48:39;;;;;;;7.07;3.42;;;;;;;22.77;66.47;101662.00;6074380;19;20055;-71
2023/06/21 06:50:44;;;;;;;6.63;2.80;;;;;;;22.70;66.30;101662.63;6090914;19;20017;-72
2023/06/21 06:52:48;;;;;;;5.65;2.38;;;;;;;22.85;66.19;101668.56;6092492;19;20019;-72
2023/06/21 06:54:54;;;;;;;8.27;2.58;;;;;;;23.08;65.50;101675.66;6099767;19;20051;-71
2023/06/21 06:56:58;;;;;;;9.02;4.65;;;;;;;22.78;64.79;101678.94;6090919;19;20078;-72
2023/06/21 06:59:03;;;;;;;5.40;2.22;;;;;;;22.72;64.79;101679.41;6103864;19;20017;-70
2023/06/21 07:01:09;;;;;;;5.70;2.45;;;;;;;22.83;65.09;101683.91;6099633;19;20018;-70
2023/06/21 07:03:17;;;;;;;6.20;2.50;;;;;;;22.98;65.68;101690.78;6103205;19;20400;-70
2023/06/21 07:05:25;;;;;;;7.22;2.78;;;;;;;23.43;63.47;101686.25;6102621;19;20007;-69
2023/06/21 07:07:31;;;;;;;9.57;2.95;;;;;;;23.36;63.15;101690.41;6096030;19;20721;-71
2023/06/21 07:09:39;;;;;;;5.35;2.30;;;;;;;23.04;64.92;101692.13;6095449;19;20542;-73
2023/06/21 07:11:44;;;;;;;6.18;2.40;;;;;;;22.97;65.38;101699.81;6097553;19;20626;-73
2023/06/21 07:13:49;;;;;;;6.75;2.47;;;;;;;23.26;63.88;101702.84;6098097;19;20569;-70
2023/06/21 07:15:54;;;;;;;6.85;2.72;;;;;;;23.72;63.27;101695.56;6094130;19;20007;-71
2023/06/21 07:17:59;;;;;;;7.97;2.83;;;;;;;23.63;62.66;101703.38;6096620;19;20526;-68
2023/06/21 07:20:08;;;;;;;6.75;2.60;;;;;;;23.69;63.34;101701.16;6095343;19;20341;-69
2023/06/21 07:22:13;;;;;;;6.70;2.53;;;;;;;24.10;62.86;101705.81;6080931;19;20093;-68
2023/06/21 07:24:19;;;;;;;5.93;2.60;;;;;;;24.66;60.50;101704.66;6096805;19;20006;-68
2023/06/21 07:26:24;;;;;;;9.85;2.60;;;;;;;24.40;60.04;101702.34;6082918;19;20021;-68
2023/06/21 07:28:29;;;;;;;7.80;2.58;;;;;;;23.84;60.63;101702.63;6097431;19;20340;-68
2023/06/21 07:30:34;;;;;;;5.80;2.22;;;;;;;24.46;60.54;101704.56;6095760;19;20012;-69
2023/06/21 07:32:39;;;;;;;7.97;2.88;;;;;;;24.67;58.54;101707.22;6095816;19;20707;-69
2023/06/21 07:34:44;;;;;;;5.55;2.40;;;;;;;25.01;59.20;101706.94;6076620;19;20371;-68
2023/06/21 07:36:53;;;;;;;5.47;2.70;;;;;;;24.81;58.30;101703.34;6093169;19;20510;-68
2023/06/21 07:38:58;;;;;;;6.90;2.67;;;;;;;24.58;58.72;101709.84;6077982;19;20087;-68
2023/06/21 07:41:03;;;;;;;8.30;2.45;;;;;;;24.64;58.47;101715.53;6073408;19;20090;-68
2023/06/21 07:43:08;;;;;;;7.03;2.70;;;;;;;24.59;58.54;101700.78;6091738;19;20018;-68
2023/06/21 07:45:13;;;;;;;7.10;2.63;;;;;;;25.01;57.87;101711.47;6078764;19;20674;-68
2023/06/21 07:47:18;;;;;;;7.75;3.63;;;;;;;25.27;58.14;101719.97;6094190;19;20018;-67
2023/06/21 07:49:27;;;;;;;6.63;2.80;;;;;;;24.99;56.90;101717.00;6089131;19;20507;-69
2023/06/21 07:51:32;;;;;;;9.63;2.55;;;;;;;25.26;58.41;101721.81;6084420;19;20007;-67
2023/06/21 07:53:39;;;;;;;6.28;2.38;;;;;;;25.78;56.77;101718.97;6083878;19;20117;-70
2023/06/21 07:55:44;;;;;;;6.72;2.80;;;;;;;24.78;57.59;101719.75;6093085;19;20014;-69
2023/06/21 07:57:50;;;;;;;9.25;3.20;;;;;;;24.65;58.45;101722.63;6073621;19;20011;-69
2023/06/21 07:59:55;;;;;;;11.98;3.33;;;;;;;25.56;56.93;101728.97;6087669;19;20117;-68
2023/06/21 08:02:03;;;;;;;8.00;2.55;;;;;;;25.56;56.83;101723.56;6092417;19;20463;-67
2023/06/21 08:04:08;;;;;;;8.52;2.83;;;;;;;25.71;56.22;101721.34;6093437;19;20101;-69
2023/06/21 08:06:14;;;;;;;9.98;3.08;;;;;;;25.53;57.08;101734.63;6074007;19;20665;-68
2023/06/21 08:08:20;;;;;;;7.68;2.60;;;;;;;25.57;55.28;101729.84;6090003;19;20015;-68
2023/06/21 08:10:31;;;;;;;8.05;3.03;;;;;;;25.53;55.35;101733.78;6091054;19;20002;-69
2023/06/21 08:12:36;;;;;;;9.35;3.53;;;;;;;24.74;57.74;101737.09;6088743;19;20026;-69
2023/06/21 08:14:44;;;;;;;10.02;3.33;;;;;;;25.00;56.88;101742.06;6095985;19;20599;-69
2023/06/21 08:16:49;;;;;;;6.00;3.00;;;;;;;25.81;55.88;101743.75;6094779;19;20002;-69
2023/06/21 08:18:54;;;;;;;5.47;2.83;;;;;;;26.25;54.07;101738.84;6093024;19;20011;-69
2023/06/21 08:20:59;;;;;;;7.00;2.95;;;;;;;26.41;53.68;101740.09;6072786;19;20027;-69
2023/06/21 08:23:04;;;;;;;8.18;3.42;;;;;;;26.38;53.52;101745.78;6099236;19;20028;-69
2023/06/21 08:25:10;;;;;;;7.53;3.28;;;;;;;25.83;54.77;101736.41;6095721;19;20582;-68
2023/06/21 08:27:18;;;;;;;10.13;3.30;;;;;;;26.26;55.02;101742.38;6099550;19;20010;-70
2023/06/21 08:29:23;;;;;;;7.07;2.50;;;;;;;26.82;54.09;101738.06;6090643;19;20015;-68
2023/06/21 08:31:28;;;;;;;7.28;3.22;;;;;;;26.74;53.26;101746.03;6101765;19;20904;-69
2023/06/21 08:33:33;;;;;;;7.40;3.25;;;;;;;26.32;52.98;101751.75;6092948;19;20106;-67
2023/06/21 08:35:38;;;;;;;11.40;3.65;;;;;;;26.22;53.94;101755.28;6097030;19;20017;-69
2023/06/21 08:38:01;;;;;;;7.95;3.40;;;;;;;25.76;54.16;101756.78;6098489;19;20491;-67
2023/06/21 08:40:30;;;;;;;7.47;3.25;;;;;;;26.49;52.81;101759.13;6098028;19;20082;-68
2023/06/21 08:42:38;;;;;;;11.60;4.70;;;;;;;25.99;54.25;101761.97;6094803;19;20013;-68
2023/06/21 08:44:43;;;;;;;10.02;4.07;;;;;;;26.15;53.06;101756.00;6090677;19;20483;-69
2023/06/21 08:46:50;;;;;;;8.23;3.75;;;;;;;26.19;54.51;101754.72;6096316;19;20021;-70
2023/06/21 08:48:59;;;;;;;8.30;3.42;;;;;;;26.20;53.33;101762.69;6094796;19;20479;-71
2023/06/21 08:51:07;;;;;;;9.50;3.90;;;;;;;26.40;54.28;101759.97;6092114;19;20941;-73
2023/06/21 08:53:15;;;;;;;9.38;4.03;;;;;;;26.84;52.73;101769.28;6088107;19;20035;-68
2023/06/21 08:55:23;;;;;;;10.13;4.32;;;;;;;26.95;53.02;101759.31;6098294;19;20014;-72
2023/06/21 08:57:32;;;;;;;10.23;3.92;;;;;;;26.93;52.57;101767.53;6097203;19;20007;-69
2023/06/21 08:59:47;;;;;;;11.77;4.18;;;;;;;26.46;52.32;101771.03;6105746;19;20115;-70
2023/06/21 09:01:59;;;;;;;7.60;3.88;;;;;;;26.76;53.72;101771.03;6106127;19;20022;-70
2023/06/21 09:04:13;;;;;;;8.05;3.55;;;;;;;26.58;51.45;101782.53;6104768;19;20011;-69
2023/06/21 09:06:22;;;;;;;10.75;3.90;;;;;;;26.86;52.91;101788.03;6106934;19;20095;-70
2023/06/21 09:08:33;;;;;;;8.15;3.75;;;;;;;27.03;52.08;101791.81;6107645;19;20354;-70
2023/06/21 09:10:41;;;;;;;8.88;4.05;;;;;;;27.04;51.39;101783.56;6104533;19;20002;-70
2023/06/21 09:12:48;;;;;;;11.90;4.60;;;;;;;27.09;52.27;101783.13;6104593;19;20014;-70
2023/06/21 09:14:59;;;;;;;11.80;5.03;;;;;;;26.23;55.19;101781.25;6105171;19;20521;-70
2023/06/21 09:17:05;;;;;;;11.25;4.55;;;;;;;26.18;54.10;101783.50;6100209;19;20489;-70
2023/06/21 09:19:10;;;;;;;12.38;5.47;;;;;;;26.17;54.39;101775.56;6104877;19;20018;-70
2023/06/21 09:21:18;;;;;;;8.50;4.07;;;;;;;27.12;53.56;101772.03;6099965;19;20384;-71
2023/06/21 09:23:25;;;;;;;10.40;4.45;;;;;;;27.63;51.81;101777.94;6100819;19;20011;-71
2023/06/21 09:25:33;;;;;;;10.73;4.22;;;;;;;27.20;50.83;101776.72;6103779;19;20014;-72
2023/06/21 09:27:38;;;;;;;10.13;3.70;;;;;;;27.72;51.08;101777.03;6104852;19;20007;-70
2023/06/21 09:29:43;;;;;;;8.80;3.78;;;;;;;27.57;50.83;101782.09;6105731;19;20043;-70
2023/06/21 09:31:51;;;;;;;12.02;4.40;;;;;;;27.27;50.67;101769.72;6106616;19;20764;-70
2023/06/21 09:33:57;;;;;;;9.38;3.75;;;;;;;28.16;49.41;101771.78;6105017;19;20014;-68
2023/06/21 09:36:03;;;;;;;9.82;4.40;;;;;;;27.13;50.95;101777.28;6104695;19;20010;-71
2023/06/21 09:38:23;;;;;;;9.05;3.88;;;;;;;27.45;50.20;101781.44;6103715;19;20007;-70
2023/06/21 09:40:28;;;;;;;7.70;3.42;;;;;;;28.23;49.14;101778.25;6103640;19;20031;-70
2023/06/21 09:42:37;;;;;;;10.40;4.10;;;;;;;27.84;49.24;101778.56;6106493;19;20487;-70